createdAt,value
2019-01-28T00:00:43.988Z,0
2019-01-28T00:01:44.448Z,0
2019-01-28T00:02:44.176Z,0
2019-01-28T00:03:43.939Z,0
2019-01-28T00:04:44.409Z,0
2019-01-28T00:05:44.425Z,0
2019-01-28T00:06:43.888Z,0
2019-01-28T00:07:44.394Z,0
2019-01-28T00:08:44.384Z,0
2019-01-28T00:09:44.134Z,0
2019-01-28T00:10:43.887Z,0
2019-01-28T00:11:44.344Z,0
2019-01-28T00:12:44.385Z,0
2019-01-28T00:13:44.095Z,0
2019-01-28T00:14:44.350Z,0
2019-01-28T00:15:44.072Z,0
2019-01-28T00:16:44.311Z,0
2019-01-28T00:17:44.300Z,0
2019-01-28T00:18:44.298Z,0
2019-01-28T00:19:44.280Z,0
2019-01-28T00:20:44.011Z,0
2019-01-28T00:21:43.994Z,0
2019-01-28T00:22:43.990Z,0
2019-01-28T00:23:43.723Z,0
2019-01-28T00:24:44.211Z,0
2019-01-28T00:25:43.703Z,0
2019-01-28T00:26:43.940Z,0
2019-01-28T00:27:43.935Z,0
2019-01-28T00:28:44.191Z,0
2019-01-28T00:29:44.178Z,0
2019-01-28T00:30:43.904Z,0
2019-01-28T00:31:43.649Z,0
2019-01-28T00:32:43.635Z,0
2019-01-28T00:33:43.886Z,0
2019-01-28T00:34:43.919Z,0
2019-01-28T00:35:44.116Z,0
2019-01-28T00:36:43.596Z,0
2019-01-28T00:37:43.837Z,0
2019-01-28T00:38:44.080Z,0
2019-01-28T00:39:44.105Z,0
2019-01-28T00:40:43.822Z,0
2019-01-28T00:41:43.552Z,0
2019-01-28T00:42:43.872Z,0
2019-01-28T00:43:43.293Z,0
2019-01-28T00:44:44.116Z,0
2019-01-28T00:45:44.032Z,0
2019-01-28T00:46:43.501Z,0
2019-01-28T00:47:43.999Z,0
2019-01-28T00:48:43.749Z,0
2019-01-28T00:49:43.968Z,0
2019-01-28T00:50:43.717Z,0
2019-01-28T00:51:43.711Z,0
2019-01-28T00:52:43.690Z,0
2019-01-28T00:53:43.935Z,0
2019-01-28T00:54:43.678Z,0
2019-01-28T00:55:43.659Z,0
2019-01-28T00:56:43.967Z,0
2019-01-28T00:57:43.892Z,0
2019-01-28T00:58:43.395Z,0
2019-01-28T00:59:43.658Z,0
2019-01-28T01:00:43.368Z,0
2019-01-28T01:01:43.925Z,0
2019-01-28T01:02:43.613Z,0
2019-01-28T01:03:43.340Z,0
2019-01-28T01:04:43.822Z,0
2019-01-28T01:05:43.837Z,0
2019-01-28T01:06:43.323Z,0
2019-01-28T01:07:43.301Z,0
2019-01-28T01:08:43.308Z,0
2019-01-28T01:09:43.787Z,0
2019-01-28T01:10:43.518Z,0
2019-01-28T01:11:43.511Z,0
2019-01-28T01:12:43.511Z,0
2019-01-28T01:13:43.242Z,0
2019-01-28T01:14:43.485Z,0
2019-01-28T01:15:43.758Z,0
2019-01-28T01:16:43.451Z,0
2019-01-28T01:17:43.712Z,0
2019-01-28T01:18:43.693Z,0
2019-01-28T01:19:43.181Z,0
2019-01-28T01:20:43.418Z,0
2019-01-28T01:21:43.166Z,0
2019-01-28T01:22:43.400Z,0
2019-01-28T01:23:43.148Z,0
2019-01-28T01:24:43.390Z,0
2019-01-28T01:25:43.120Z,0
2019-01-28T01:26:43.605Z,0
2019-01-28T01:27:43.588Z,0
2019-01-28T01:28:43.337Z,0
2019-01-28T01:29:43.576Z,0
2019-01-28T01:30:43.350Z,0
2019-01-28T01:31:43.568Z,0
2019-01-28T01:32:43.296Z,0
2019-01-28T01:33:43.300Z,0
2019-01-28T01:34:43.692Z,0
2019-01-28T01:35:43.010Z,0
2019-01-28T01:36:42.766Z,0
2019-01-28T01:37:43.260Z,0
2019-01-28T01:38:43.242Z,0
2019-01-28T01:39:43.242Z,0
2019-01-28T01:40:42.743Z,0
2019-01-28T01:41:42.949Z,0
2019-01-28T01:42:43.203Z,0
2019-01-28T01:43:42.676Z,0
2019-01-28T01:44:43.163Z,0
2019-01-28T01:45:43.408Z,0
2019-01-28T01:46:43.165Z,0
2019-01-28T01:47:43.204Z,0
2019-01-28T01:48:42.892Z,0
2019-01-28T01:49:42.889Z,0
2019-01-28T01:50:43.104Z,0
2019-01-28T01:51:43.090Z,0
2019-01-28T01:52:43.078Z,0
2019-01-28T01:53:43.079Z,0
2019-01-28T01:54:43.071Z,0
2019-01-28T01:55:43.077Z,0
2019-01-28T01:56:42.795Z,0
2019-01-28T01:57:42.835Z,0
2019-01-28T01:58:43.293Z,0
2019-01-28T01:59:43.324Z,0
2019-01-28T02:00:43.042Z,0
2019-01-28T02:01:43.250Z,0
2019-01-28T02:02:42.984Z,0
2019-01-28T02:03:43.247Z,0
2019-01-28T02:04:42.987Z,0
2019-01-28T02:05:43.222Z,0
2019-01-28T02:06:42.945Z,0
2019-01-28T02:07:43.199Z,0
2019-01-28T02:08:42.929Z,0
2019-01-28T02:09:42.920Z,0
2019-01-28T02:10:43.145Z,0
2019-01-28T02:11:42.895Z,0
2019-01-28T02:12:42.633Z,0
2019-01-28T02:13:42.877Z,0
2019-01-28T02:14:42.886Z,0
2019-01-28T02:15:42.860Z,0
2019-01-28T02:16:42.338Z,0
2019-01-28T02:17:42.583Z,0
2019-01-28T02:18:42.580Z,0
2019-01-28T02:19:42.804Z,0
2019-01-28T02:20:42.563Z,0
2019-01-28T02:21:42.788Z,0
2019-01-28T02:22:42.523Z,0
2019-01-28T02:23:42.704Z,0
2019-01-28T02:24:42.506Z,0
2019-01-28T02:25:42.262Z,0
2019-01-28T02:26:42.991Z,0
2019-01-28T02:27:42.748Z,0
2019-01-28T02:28:42.237Z,0
2019-01-28T02:29:42.486Z,0
2019-01-28T02:30:42.694Z,0
2019-01-28T02:31:42.973Z,0
2019-01-28T02:32:42.905Z,0
2019-01-28T02:33:42.911Z,0
2019-01-28T02:34:42.901Z,0
2019-01-28T02:35:42.943Z,0
2019-01-28T02:36:42.637Z,0
2019-01-28T02:37:42.630Z,0
2019-01-28T02:38:42.389Z,0
2019-01-28T02:39:42.853Z,0
2019-01-28T02:40:42.857Z,0
2019-01-28T02:41:42.568Z,0
2019-01-28T02:42:42.336Z,0
2019-01-28T02:43:42.564Z,0
2019-01-28T02:44:42.535Z,0
2019-01-28T02:45:42.783Z,0
2019-01-28T02:46:42.262Z,0
2019-01-28T02:47:42.531Z,0
2019-01-28T02:48:42.267Z,0
2019-01-28T02:49:42.028Z,0
2019-01-28T02:50:42.226Z,0
2019-01-28T02:51:42.729Z,0
2019-01-28T02:52:42.193Z,0
2019-01-28T02:53:42.699Z,0
2019-01-28T02:54:42.439Z,0
2019-01-28T02:55:42.171Z,0
2019-01-28T02:56:42.642Z,0
2019-01-28T02:57:42.648Z,0
2019-01-28T02:58:42.143Z,0
2019-01-28T02:59:42.646Z,0
2019-01-28T03:00:42.394Z,0
2019-01-28T03:01:42.620Z,0
2019-01-28T03:02:42.343Z,0
2019-01-28T03:03:42.335Z,0
2019-01-28T03:04:42.324Z,0
2019-01-28T03:05:43.371Z,0
2019-01-28T03:06:42.319Z,0
2019-01-28T03:07:42.295Z,0
2019-01-28T03:08:42.283Z,0
2019-01-28T03:09:42.271Z,0
2019-01-28T03:10:42.514Z,0
2019-01-28T03:11:42.518Z,0
2019-01-28T03:12:42.038Z,0
2019-01-28T03:13:41.982Z,0
2019-01-28T03:14:42.439Z,0
2019-01-28T03:15:41.948Z,0
2019-01-28T03:16:42.204Z,0
2019-01-28T03:17:42.183Z,0
2019-01-28T03:18:42.153Z,0
2019-01-28T03:19:42.165Z,0
2019-01-28T03:20:41.885Z,0
2019-01-28T03:21:42.400Z,0
2019-01-28T03:22:42.369Z,0
2019-01-28T03:23:42.302Z,0
2019-01-28T03:24:42.352Z,0
2019-01-28T03:25:41.818Z,0
2019-01-28T03:26:42.068Z,0
2019-01-28T03:27:42.631Z,0
2019-01-28T03:28:42.319Z,0
2019-01-28T03:29:42.061Z,0
2019-01-28T03:30:42.289Z,0
2019-01-28T03:31:42.324Z,0
2019-01-28T03:32:42.273Z,0
2019-01-28T03:33:42.271Z,0
2019-01-28T03:34:42.223Z,0
2019-01-28T03:35:41.998Z,0
2019-01-28T03:36:42.021Z,0
2019-01-28T03:37:41.967Z,0
2019-01-28T03:38:41.692Z,0
2019-01-28T03:39:42.178Z,0
2019-01-28T03:40:41.918Z,0
2019-01-28T03:41:41.911Z,0
2019-01-28T03:42:41.901Z,0
2019-01-28T03:43:41.623Z,0
2019-01-28T03:44:41.616Z,0
2019-01-28T03:45:41.859Z,0
2019-01-28T03:46:42.112Z,0
2019-01-28T03:47:42.079Z,0
2019-01-28T03:48:42.095Z,0
2019-01-28T03:49:41.309Z,0
2019-01-28T03:50:41.571Z,0
2019-01-28T03:51:41.799Z,0
2019-01-28T03:52:41.781Z,0
2019-01-28T03:53:41.535Z,0
2019-01-28T03:54:41.549Z,0
2019-01-28T03:55:41.507Z,0
2019-01-28T03:56:42.001Z,0
2019-01-28T03:57:41.743Z,0
2019-01-28T03:58:41.969Z,0
2019-01-28T03:59:41.724Z,0
2019-01-28T04:00:41.948Z,0
2019-01-28T04:01:41.925Z,0
2019-01-28T04:02:41.692Z,0
2019-01-28T04:03:41.667Z,0
2019-01-28T04:04:41.641Z,0
2019-01-28T04:05:42.673Z,0
2019-01-28T04:06:41.370Z,0
2019-01-28T04:07:41.609Z,0
2019-01-28T04:08:41.590Z,0
2019-01-28T04:09:41.346Z,0
2019-01-28T04:10:41.334Z,0
2019-01-28T04:11:41.810Z,0
2019-01-28T04:12:41.074Z,0
2019-01-28T04:13:41.558Z,0
2019-01-28T04:14:41.296Z,0
2019-01-28T04:15:41.520Z,0
2019-01-28T04:16:41.504Z,0
2019-01-28T04:17:41.239Z,0
2019-01-28T04:18:41.243Z,0
2019-01-28T04:19:41.484Z,0
2019-01-28T04:20:41.480Z,0
2019-01-28T04:21:41.224Z,0
2019-01-28T04:22:41.458Z,0
2019-01-28T04:23:41.434Z,0
2019-01-28T04:24:41.687Z,0
2019-01-28T04:25:42.212Z,0
2019-01-28T04:26:41.645Z,0
2019-01-28T04:27:41.186Z,0
2019-01-28T04:28:41.139Z,0
2019-01-28T04:29:41.385Z,0
2019-01-28T04:30:41.620Z,0
2019-01-28T04:31:41.348Z,0
2019-01-28T04:32:41.356Z,0
2019-01-28T04:33:41.324Z,0
2019-01-28T04:34:41.316Z,0
2019-01-28T04:35:41.565Z,0
2019-01-28T04:36:41.545Z,0
2019-01-28T04:37:41.530Z,0
2019-01-28T04:38:41.046Z,0
2019-01-28T04:39:41.301Z,0
2019-01-28T04:40:41.006Z,0
2019-01-28T04:41:40.981Z,0
2019-01-28T04:42:41.242Z,0
2019-01-28T04:43:41.226Z,0
2019-01-28T04:44:41.284Z,0
2019-01-28T04:45:40.965Z,0
2019-01-28T04:46:40.943Z,0
2019-01-28T04:47:41.410Z,0
2019-01-28T04:48:40.925Z,0
2019-01-28T04:49:41.143Z,0
2019-01-28T04:50:41.147Z,0
2019-01-28T04:51:41.144Z,0
2019-01-28T04:52:40.884Z,0
2019-01-28T04:53:41.089Z,0
2019-01-28T04:54:41.097Z,0
2019-01-28T04:55:40.843Z,0
2019-01-28T04:56:41.097Z,0
2019-01-28T04:57:40.812Z,0
2019-01-28T04:58:41.300Z,0
2019-01-28T04:59:41.060Z,0
2019-01-28T05:00:40.775Z,0
2019-01-28T05:01:41.265Z,0
2019-01-28T05:02:41.249Z,0
2019-01-28T05:03:40.990Z,0
2019-01-28T05:04:40.478Z,0
2019-01-28T05:05:40.965Z,0
2019-01-28T05:06:41.268Z,0
2019-01-28T05:07:40.949Z,0
2019-01-28T05:08:41.222Z,0
2019-01-28T05:09:41.193Z,0
2019-01-28T05:10:40.906Z,0
2019-01-28T05:11:41.184Z,0
2019-01-28T05:12:40.898Z,0
2019-01-28T05:13:40.886Z,0
2019-01-28T05:14:40.895Z,0
2019-01-28T05:15:40.612Z,0
2019-01-28T05:16:41.129Z,0
2019-01-28T05:17:40.604Z,0
2019-01-28T05:18:40.588Z,0
2019-01-28T05:19:40.605Z,0
2019-01-28T05:20:41.050Z,0
2019-01-28T05:21:41.603Z,0
2019-01-28T05:22:40.778Z,0
2019-01-28T05:23:40.549Z,0
2019-01-28T05:24:40.752Z,0
2019-01-28T05:25:40.544Z,0
2019-01-28T05:26:40.792Z,0
2019-01-28T05:27:40.740Z,0
2019-01-28T05:28:40.467Z,0
2019-01-28T05:29:40.972Z,0
2019-01-28T05:30:40.945Z,0
2019-01-28T05:31:40.676Z,0
2019-01-28T05:32:40.929Z,0
2019-01-28T05:33:40.926Z,0
2019-01-28T05:34:40.402Z,0
2019-01-28T05:35:40.893Z,0
2019-01-28T05:36:40.874Z,0
2019-01-28T05:37:40.377Z,0
2019-01-28T05:38:40.613Z,0
2019-01-28T05:39:40.856Z,0
2019-01-28T05:40:40.346Z,0
2019-01-28T05:41:40.827Z,0
2019-01-28T05:42:40.083Z,0
2019-01-28T05:43:40.800Z,0
2019-01-28T05:44:40.555Z,0
2019-01-28T05:45:40.800Z,0
2019-01-28T05:46:40.768Z,0
2019-01-28T05:47:40.547Z,0
2019-01-28T05:48:40.745Z,0
2019-01-28T05:49:40.736Z,0
2019-01-28T05:50:40.763Z,0
2019-01-28T05:51:40.718Z,0
2019-01-28T05:52:40.742Z,0
2019-01-28T05:53:40.708Z,0
2019-01-28T05:54:39.956Z,0
2019-01-28T05:55:40.489Z,0
2019-01-28T05:56:40.668Z,0
2019-01-28T05:57:40.458Z,0
2019-01-28T05:58:40.651Z,0
2019-01-28T05:59:40.169Z,0
2019-01-28T06:00:40.388Z,0
2019-01-28T06:01:40.383Z,0
2019-01-28T06:02:40.379Z,0
2019-01-28T06:03:40.386Z,0
2019-01-28T06:04:40.584Z,0
2019-01-28T06:05:40.349Z,0
2019-01-28T06:06:44.281Z,0
2019-01-28T06:07:40.553Z,0
2019-01-28T06:08:40.308Z,0
2019-01-28T06:09:40.515Z,0
2019-01-28T06:10:40.271Z,0
2019-01-28T06:11:40.257Z,0
2019-01-28T06:12:40.492Z,0
2019-01-28T06:13:40.483Z,0
2019-01-28T06:14:41.616Z,0
2019-01-28T06:15:40.460Z,0
2019-01-28T06:16:40.457Z,0
2019-01-28T06:17:45.866Z,0
2019-01-28T06:18:40.446Z,0
2019-01-28T06:19:40.168Z,0
2019-01-28T06:20:40.179Z,0
2019-01-28T06:21:40.420Z,0
2019-01-28T06:22:40.176Z,0
2019-01-28T06:23:40.391Z,0
2019-01-28T06:24:40.130Z,0
2019-01-28T06:25:40.134Z,0
2019-01-28T06:26:40.362Z,0
2019-01-28T06:27:40.107Z,4
2019-01-28T06:28:39.860Z,4
2019-01-28T06:29:40.324Z,4
2019-01-28T06:30:40.309Z,0
2019-01-28T06:31:40.073Z,4
2019-01-28T06:32:40.071Z,4
2019-01-28T06:33:39.784Z,4
2019-01-28T06:34:40.041Z,4
2019-01-28T06:35:39.778Z,4
2019-01-28T06:36:40.271Z,8
2019-01-28T06:37:40.409Z,8
2019-01-28T06:38:40.256Z,12
2019-01-28T06:39:41.142Z,12
2019-01-28T06:40:40.046Z,12
2019-01-28T06:41:39.710Z,20
2019-01-28T06:42:40.203Z,20
2019-01-28T06:43:39.692Z,20
2019-01-28T06:44:39.898Z,24
2019-01-28T06:45:39.932Z,28
2019-01-28T06:46:39.910Z,36
2019-01-28T06:47:46.599Z,40
2019-01-28T06:48:39.636Z,48
2019-01-28T06:49:39.704Z,52
2019-01-28T06:50:39.861Z,60
2019-01-28T06:51:39.838Z,68
2019-01-28T06:52:40.093Z,72
2019-01-28T06:53:40.093Z,80
2019-01-28T06:54:40.061Z,84
2019-01-28T06:55:40.106Z,96
2019-01-28T06:56:41.018Z,108
2019-01-28T06:57:39.550Z,116
2019-01-28T06:58:40.024Z,128
2019-01-28T06:59:39.763Z,140
2019-01-28T07:00:39.755Z,152
2019-01-28T07:01:39.239Z,164
2019-01-28T07:02:39.730Z,180
2019-01-28T07:03:39.964Z,200
2019-01-28T07:04:39.464Z,224
2019-01-28T07:05:39.708Z,244
2019-01-28T07:06:39.959Z,264
2019-01-28T07:07:41.524Z,284
2019-01-28T07:08:39.412Z,304
2019-01-28T07:09:39.412Z,316
2019-01-28T07:10:39.411Z,336
2019-01-28T07:11:39.648Z,356
2019-01-28T07:12:39.627Z,372
2019-01-28T07:13:39.370Z,392
2019-01-28T07:14:39.851Z,408
2019-01-28T07:15:39.575Z,424
2019-01-28T07:16:39.337Z,436
2019-01-28T07:17:39.335Z,456
2019-01-28T07:18:39.316Z,476
2019-01-28T07:19:39.315Z,500
2019-01-28T07:20:39.559Z,516
2019-01-28T07:21:39.774Z,536
2019-01-28T07:22:39.773Z,560
2019-01-28T07:23:39.510Z,584
2019-01-28T07:24:39.240Z,612
2019-01-28T07:25:39.520Z,636
2019-01-28T07:26:39.224Z,664
2019-01-28T07:27:39.724Z,688
2019-01-28T07:28:39.716Z,708
2019-01-28T07:29:39.692Z,728
2019-01-28T07:30:39.183Z,748
2019-01-28T07:31:39.171Z,772
2019-01-28T07:32:39.427Z,800
2019-01-28T07:33:39.418Z,828
2019-01-28T07:34:39.640Z,864
2019-01-28T07:35:39.400Z,900
2019-01-28T07:36:39.383Z,948
2019-01-28T07:37:39.926Z,1004
2019-01-28T07:38:39.119Z,1064
2019-01-28T07:39:39.085Z,1116
2019-01-28T07:40:39.116Z,1164
2019-01-28T07:41:39.327Z,1212
2019-01-28T07:42:39.553Z,1256
2019-01-28T07:43:39.078Z,1324
2019-01-28T07:44:39.530Z,1396
2019-01-28T07:45:47.318Z,1468
2019-01-28T07:46:39.281Z,1528
2019-01-28T07:47:39.298Z,1588
2019-01-28T07:48:39.034Z,1640
2019-01-28T07:49:39.243Z,1708
2019-01-28T07:50:39.248Z,1784
2019-01-28T07:51:38.964Z,1840
2019-01-28T07:52:39.211Z,1908
2019-01-28T07:53:39.449Z,1984
2019-01-28T07:54:39.440Z,2060
2019-01-28T07:55:38.964Z,2140
2019-01-28T07:56:39.192Z,2220
2019-01-28T07:57:39.424Z,2308
2019-01-28T07:58:38.924Z,2400
2019-01-28T07:59:39.150Z,2496
2019-01-28T08:00:38.648Z,2588
2019-01-28T08:01:38.644Z,2672
2019-01-28T08:02:39.127Z,2748
2019-01-28T08:03:38.862Z,2832
2019-01-28T08:04:39.131Z,2908
2019-01-28T08:05:39.138Z,3004
2019-01-28T08:06:38.855Z,3112
2019-01-28T08:07:39.323Z,3220
2019-01-28T08:08:39.126Z,3320
2019-01-28T08:09:39.316Z,3404
2019-01-28T08:10:39.050Z,3496
2019-01-28T08:11:39.314Z,3564
2019-01-28T08:12:39.041Z,3588
2019-01-28T08:13:39.054Z,3592
2019-01-28T08:14:39.264Z,3592
2019-01-28T08:15:39.264Z,3580
2019-01-28T08:16:39.015Z,3540
2019-01-28T08:17:38.981Z,3560
2019-01-28T08:18:38.718Z,3560
2019-01-28T08:19:38.966Z,3572
2019-01-28T08:20:39.212Z,3572
2019-01-28T08:21:38.984Z,3540
2019-01-28T08:22:38.929Z,3472
2019-01-28T08:23:39.158Z,3436
2019-01-28T08:24:38.902Z,3444
2019-01-28T08:25:39.171Z,3428
2019-01-28T08:26:38.924Z,3432
2019-01-28T08:27:40.011Z,3440
2019-01-28T08:28:43.574Z,3444
2019-01-28T08:29:39.916Z,3444
2019-01-28T08:30:38.859Z,3436
2019-01-28T08:31:38.874Z,3420
2019-01-28T08:32:38.578Z,3420
2019-01-28T08:33:39.133Z,3432
2019-01-28T08:34:39.082Z,3456
2019-01-28T08:35:39.072Z,3500
2019-01-28T08:36:38.798Z,3624
2019-01-28T08:37:38.801Z,3788
2019-01-28T08:38:39.050Z,3984
2019-01-28T08:39:38.829Z,4196
2019-01-28T08:40:38.258Z,4408
2019-01-28T08:41:38.980Z,4656
2019-01-28T08:42:38.780Z,4884
2019-01-28T08:43:38.480Z,5112
2019-01-28T08:44:38.224Z,5304
2019-01-28T08:45:38.463Z,5460
2019-01-28T08:46:38.711Z,5596
2019-01-28T08:47:38.936Z,5728
2019-01-28T08:48:38.438Z,5864
2019-01-28T08:49:38.186Z,5976
2019-01-28T08:50:38.722Z,6056
2019-01-28T08:51:38.409Z,6108
2019-01-28T08:52:38.511Z,6124
2019-01-28T08:53:38.395Z,6088
2019-01-28T08:54:38.632Z,6056
2019-01-28T08:55:38.416Z,5960
2019-01-28T08:56:38.860Z,5840
2019-01-28T08:57:38.856Z,5696
2019-01-28T08:58:38.594Z,5544
2019-01-28T08:59:38.335Z,5416
2019-01-28T09:00:38.115Z,5372
2019-01-28T09:01:38.074Z,5280
2019-01-28T09:02:38.622Z,5144
2019-01-28T09:03:38.563Z,4964
2019-01-28T09:04:38.552Z,4852
2019-01-28T09:05:38.550Z,4792
2019-01-28T09:06:38.291Z,4764
2019-01-28T09:07:38.527Z,4696
2019-01-28T09:08:39.548Z,4632
2019-01-28T09:09:39.019Z,4580
2019-01-28T09:10:38.507Z,4552
2019-01-28T09:11:38.240Z,4536
2019-01-28T09:12:38.724Z,4544
2019-01-28T09:13:38.477Z,4576
2019-01-28T09:14:38.711Z,4600
2019-01-28T09:15:38.224Z,4632
2019-01-28T09:16:38.457Z,4664
2019-01-28T09:17:38.436Z,4664
2019-01-28T09:18:38.705Z,4628
2019-01-28T09:19:38.670Z,4540
2019-01-28T09:20:38.420Z,4468
2019-01-28T09:21:38.403Z,4328
2019-01-28T09:22:38.391Z,4208
2019-01-28T09:23:38.398Z,4072
2019-01-28T09:24:38.380Z,3972
2019-01-28T09:25:38.655Z,3904
2019-01-28T09:26:38.104Z,3876
2019-01-28T09:27:38.602Z,3856
2019-01-28T09:28:38.098Z,3856
2019-01-28T09:29:38.339Z,3868
2019-01-28T09:30:38.586Z,3892
2019-01-28T09:31:38.087Z,3924
2019-01-28T09:32:38.323Z,3980
2019-01-28T09:33:38.057Z,4064
2019-01-28T09:34:38.052Z,4152
2019-01-28T09:35:38.037Z,4220
2019-01-28T09:36:37.790Z,4276
2019-01-28T09:37:38.043Z,4336
2019-01-28T09:38:38.028Z,4416
2019-01-28T09:39:38.425Z,4484
2019-01-28T09:40:38.284Z,4520
2019-01-28T09:41:42.614Z,4576
2019-01-28T09:42:37.982Z,4628
2019-01-28T09:43:38.252Z,4696
2019-01-28T09:44:38.495Z,4796
2019-01-28T09:45:37.754Z,4924
2019-01-28T09:46:38.188Z,5100
2019-01-28T09:47:38.178Z,5288
2019-01-28T09:48:41.402Z,5464
2019-01-28T09:49:38.188Z,5608
2019-01-28T09:50:38.180Z,5732
2019-01-28T09:51:37.901Z,5796
2019-01-28T09:52:38.167Z,5916
2019-01-28T09:53:38.157Z,6068
2019-01-28T09:54:37.874Z,6196
2019-01-28T09:55:38.119Z,6320
2019-01-28T09:56:38.109Z,6400
2019-01-28T09:57:38.350Z,6448
2019-01-28T09:58:38.342Z,6516
2019-01-28T09:59:38.327Z,6552
2019-01-28T10:00:37.860Z,6596
2019-01-28T10:01:38.073Z,6616
2019-01-28T10:02:38.074Z,6672
2019-01-28T10:03:38.049Z,6640
2019-01-28T10:04:38.045Z,6632
2019-01-28T10:05:38.282Z,6640
2019-01-28T10:06:37.778Z,6576
2019-01-28T10:07:37.537Z,6484
2019-01-28T10:08:38.022Z,6328
2019-01-28T10:09:38.803Z,6128
2019-01-28T10:10:37.998Z,5932
2019-01-28T10:11:38.226Z,5752
2019-01-28T10:12:39.239Z,5588
2019-01-28T10:13:38.218Z,5496
2019-01-28T10:14:38.220Z,5396
2019-01-28T10:15:38.237Z,5300
2019-01-28T10:16:37.706Z,5240
2019-01-28T10:17:37.534Z,5220
2019-01-28T10:18:44.233Z,5204
2019-01-28T10:19:37.985Z,5188
2019-01-28T10:20:38.208Z,5156
2019-01-28T10:21:38.164Z,5052
2019-01-28T10:22:37.661Z,4904
2019-01-28T10:23:37.669Z,4720
2019-01-28T10:24:37.901Z,4488
2019-01-28T10:25:38.130Z,4312
2019-01-28T10:26:37.883Z,4216
2019-01-28T10:27:38.112Z,4212
2019-01-28T10:28:37.365Z,4280
2019-01-28T10:29:37.840Z,4352
2019-01-28T10:30:37.830Z,4448
2019-01-28T10:31:38.144Z,4524
2019-01-28T10:32:42.796Z,4624
2019-01-28T10:33:38.091Z,4668
2019-01-28T10:34:37.816Z,4764
2019-01-28T10:35:37.794Z,4920
2019-01-28T10:36:41.830Z,5024
2019-01-28T10:37:37.817Z,5056
2019-01-28T10:38:37.784Z,5068
2019-01-28T10:39:37.517Z,5060
2019-01-28T10:40:37.766Z,5040
2019-01-28T10:41:38.011Z,4980
2019-01-28T10:42:37.502Z,4908
2019-01-28T10:43:37.732Z,4824
2019-01-28T10:44:37.768Z,4712
2019-01-28T10:45:37.708Z,4496
2019-01-28T10:46:37.988Z,4320
2019-01-28T10:47:37.705Z,4204
2019-01-28T10:48:37.202Z,4132
2019-01-28T10:49:37.706Z,4044
2019-01-28T10:50:37.670Z,4036
2019-01-28T10:51:37.678Z,4088
2019-01-28T10:52:37.402Z,4104
2019-01-28T10:53:37.675Z,4136
2019-01-28T10:54:37.696Z,4172
2019-01-28T10:55:37.632Z,4200
2019-01-28T10:56:37.861Z,4228
2019-01-28T10:57:37.862Z,4240
2019-01-28T10:58:37.597Z,4292
2019-01-28T10:59:37.395Z,4368
2019-01-28T11:00:37.609Z,4384
2019-01-28T11:01:37.582Z,4424
2019-01-28T11:02:37.808Z,4476
2019-01-28T11:03:37.826Z,4484
2019-01-28T11:04:37.856Z,4472
2019-01-28T11:05:37.934Z,4496
2019-01-28T11:06:37.528Z,4540
2019-01-28T11:07:37.797Z,4596
2019-01-28T11:08:37.525Z,4668
2019-01-28T11:09:40.198Z,4764
2019-01-28T11:10:37.939Z,4860
2019-01-28T11:11:37.848Z,4940
2019-01-28T11:12:37.744Z,4996
2019-01-28T11:13:37.685Z,5100
2019-01-28T11:14:37.587Z,5208
2019-01-28T11:15:37.353Z,5288
2019-01-28T11:16:37.878Z,5328
2019-01-28T11:17:37.830Z,5332
2019-01-28T11:18:37.485Z,5284
2019-01-28T11:19:39.705Z,5232
2019-01-28T11:20:37.966Z,5120
2019-01-28T11:21:37.510Z,5004
2019-01-28T11:22:37.783Z,4876
2019-01-28T11:23:39.576Z,4744
2019-01-28T11:24:37.024Z,4652
2019-01-28T11:25:37.557Z,4580
2019-01-28T11:26:37.650Z,4504
2019-01-28T11:27:37.883Z,4456
2019-01-28T11:28:37.417Z,4472
2019-01-28T11:29:37.412Z,4496
2019-01-28T11:30:37.818Z,4520
2019-01-28T11:31:37.574Z,4556
2019-01-28T11:32:37.500Z,4588
2019-01-28T11:33:42.003Z,4664
2019-01-28T11:34:37.720Z,4760
2019-01-28T11:35:38.451Z,4968
2019-01-28T11:36:37.882Z,5192
2019-01-28T11:37:38.078Z,5476
2019-01-28T11:38:37.488Z,5704
2019-01-28T11:39:37.783Z,6060
2019-01-28T11:40:37.841Z,6344
2019-01-28T11:41:37.066Z,6660
2019-01-28T11:42:38.019Z,6940
2019-01-28T11:43:37.204Z,7136
2019-01-28T11:44:37.349Z,7244
2019-01-28T11:45:37.532Z,7288
2019-01-28T11:46:37.071Z,7200
2019-01-28T11:47:37.260Z,7036
2019-01-28T11:48:37.712Z,6816
2019-01-28T11:49:37.619Z,6588
2019-01-28T11:50:37.161Z,6392
2019-01-28T11:51:37.399Z,6168
2019-01-28T11:52:37.150Z,5964
2019-01-28T11:53:37.184Z,5784
2019-01-28T11:54:37.411Z,5616
2019-01-28T11:55:37.122Z,5516
2019-01-28T11:56:37.113Z,5396
2019-01-28T11:57:37.129Z,5344
2019-01-28T11:58:37.095Z,5308
2019-01-28T11:59:37.105Z,5384
2019-01-28T12:00:36.872Z,5424
2019-01-28T12:01:37.312Z,5408
2019-01-28T12:02:41.402Z,5376
2019-01-28T12:03:37.377Z,5372
2019-01-28T12:04:36.829Z,5312
2019-01-28T12:05:37.046Z,5276
2019-01-28T12:06:37.281Z,5328
2019-01-28T12:07:37.285Z,5284
2019-01-28T12:08:37.320Z,5360
2019-01-28T12:09:36.751Z,5436
2019-01-28T12:10:37.291Z,5496
2019-01-28T12:11:36.578Z,5572
2019-01-28T12:12:37.216Z,5660
2019-01-28T12:13:37.045Z,5704
2019-01-28T12:14:36.722Z,5740
2019-01-28T12:15:36.718Z,5776
2019-01-28T12:16:36.695Z,5788
2019-01-28T12:17:37.190Z,5756
2019-01-28T12:18:36.973Z,5612
2019-01-28T12:19:36.659Z,5400
2019-01-28T12:20:37.184Z,5112
2019-01-28T12:21:37.142Z,4880
2019-01-28T12:22:37.155Z,4680
2019-01-28T12:23:41.805Z,4364
2019-01-28T12:24:37.132Z,4132
2019-01-28T12:25:37.129Z,3868
2019-01-28T12:26:37.127Z,3548
2019-01-28T12:27:36.915Z,3236
2019-01-28T12:28:36.901Z,2952
2019-01-28T12:29:38.604Z,2736
2019-01-28T12:30:37.093Z,2568
2019-01-28T12:31:36.868Z,2432
2019-01-28T12:32:37.094Z,2320
2019-01-28T12:33:36.786Z,2308
2019-01-28T12:34:41.876Z,2332
2019-01-28T12:35:36.807Z,2368
2019-01-28T12:36:37.014Z,2480
2019-01-28T12:37:37.034Z,2552
2019-01-28T12:38:36.766Z,2620
2019-01-28T12:39:37.017Z,2696
2019-01-28T12:40:36.734Z,2716
2019-01-28T12:41:36.739Z,2816
2019-01-28T12:42:36.469Z,2924
2019-01-28T12:43:36.712Z,3048
2019-01-28T12:44:36.969Z,3148
2019-01-28T12:45:36.452Z,3196
2019-01-28T12:46:36.957Z,3272
2019-01-28T12:47:36.669Z,3288
2019-01-28T12:48:36.918Z,3300
2019-01-28T12:49:36.917Z,3280
2019-01-28T12:50:36.897Z,3188
2019-01-28T12:51:36.696Z,3076
2019-01-28T12:52:36.917Z,2972
2019-01-28T12:53:37.627Z,2912
2019-01-28T12:54:36.856Z,2860
2019-01-28T12:55:38.808Z,2832
2019-01-28T12:56:36.840Z,2788
2019-01-28T12:57:36.829Z,2744
2019-01-28T12:58:36.578Z,2800
2019-01-28T12:59:36.581Z,2880
2019-01-28T13:00:36.561Z,2940
2019-01-28T13:01:36.556Z,3076
2019-01-28T13:02:36.785Z,3244
2019-01-28T13:03:36.775Z,3344
2019-01-28T13:04:44.394Z,3340
2019-01-28T13:05:36.516Z,3344
2019-01-28T13:06:36.737Z,3288
2019-01-28T13:07:36.238Z,3248
2019-01-28T13:08:36.525Z,3208
2019-01-28T13:09:36.208Z,3164
2019-01-28T13:10:37.285Z,3112
2019-01-28T13:11:36.702Z,3048
2019-01-28T13:12:36.725Z,2988
2019-01-28T13:13:40.932Z,2920
2019-01-28T13:14:36.434Z,2868
2019-01-28T13:15:36.172Z,2792
2019-01-28T13:16:36.651Z,2704
2019-01-28T13:17:36.404Z,2616
2019-01-28T13:18:36.639Z,2484
2019-01-28T13:19:37.356Z,2364
2019-01-28T13:20:36.368Z,2304
2019-01-28T13:21:36.123Z,2256
2019-01-28T13:22:36.095Z,2200
2019-01-28T13:23:36.585Z,2168
2019-01-28T13:24:36.328Z,2124
2019-01-28T13:25:36.085Z,2076
2019-01-28T13:26:36.566Z,2008
2019-01-28T13:27:36.556Z,1916
2019-01-28T13:28:36.536Z,1840
2019-01-28T13:29:36.278Z,1800
2019-01-28T13:30:36.540Z,1760
2019-01-28T13:31:40.550Z,1692
2019-01-28T13:32:36.517Z,1608
2019-01-28T13:33:36.242Z,1532
2019-01-28T13:34:36.026Z,1532
2019-01-28T13:35:36.223Z,1540
2019-01-28T13:36:36.459Z,1556
2019-01-28T13:37:37.006Z,1548
2019-01-28T13:38:35.954Z,1516
2019-01-28T13:39:36.216Z,1492
2019-01-28T13:40:36.437Z,1484
2019-01-28T13:41:35.934Z,1512
2019-01-28T13:42:36.424Z,1548
2019-01-28T13:43:35.919Z,1580
2019-01-28T13:44:35.899Z,1616
2019-01-28T13:45:35.888Z,1588
2019-01-28T13:46:36.137Z,1584
2019-01-28T13:47:36.130Z,1564
2019-01-28T13:48:35.852Z,1576
2019-01-28T13:49:42.615Z,1604
2019-01-28T13:50:36.101Z,1592
2019-01-28T13:51:36.342Z,1612
2019-01-28T13:52:36.227Z,1612
2019-01-28T13:53:36.309Z,1612
2019-01-28T13:54:36.043Z,1608
2019-01-28T13:55:36.086Z,1580
2019-01-28T13:56:36.331Z,1548
2019-01-28T13:57:36.276Z,1544
2019-01-28T13:58:36.022Z,1532
2019-01-28T13:59:36.018Z,1544
2019-01-28T14:00:36.024Z,1544